sensor_id;sensor_type;location;lat;lon;timestamp;temperature;humidity
11280;DHT22;5696;50.928;6.960;2023-01-19T06:03:25;2.70;99.90
11280;DHT22;5696;50.928;6.960;2023-01-19T06:05:51;2.70;99.90
11280;DHT22;5696;50.928;6.960;2023-01-19T06:08:17;2.60;99.90
11280;DHT22;5696;50.928;6.960;2023-01-19T06:10:43;2.40;99.90
11280;DHT22;5696;50.928;6.960;2023-01-19T06:13:09;2.30;99.90
11280;DHT22;5696;50.928;6.960;2023-01-19T06:15:35;2.20;99.90
11280;DHT22;5696;50.928;6.960;2023-01-19T06:18:02;2.20;99.90
11280;DHT22;5696;50.928;6.960;2023-01-19T06:20:27;2.10;99.90
11280;DHT22;5696;50.928;6.960;2023-01-19T06:22:55;2.10;99.90
11280;DHT22;5696;50.928;6.960;2023-01-19T06:25:22;2.00;99.90
11280;DHT22;5696;50.928;6.960;2023-01-19T06:27:47;2.00;99.90
11280;DHT22;5696;50.928;6.960;2023-01-19T06:30:13;2.00;99.90
11280;DHT22;5696;50.928;6.960;2023-01-19T06:32:39;2.00;99.90
11280;DHT22;5696;50.928;6.960;2023-01-19T06:35:05;2.10;99.90
11280;DHT22;5696;50.928;6.960;2023-01-19T06:37:32;2.00;99.90
11280;DHT22;5696;50.928;6.960;2023-01-19T06:39:58;2.00;99.90
11280;DHT22;5696;50.928;6.960;2023-01-19T06:42:23;2.00;99.90
11280;DHT22;5696;50.928;6.960;2023-01-19T06:44:49;2.00;99.90
11280;DHT22;5696;50.928;6.960;2023-01-19T06:47:15;2.00;99.90
11280;DHT22;5696;50.928;6.960;2023-01-19T06:49:41;1.90;99.90
11280;DHT22;5696;50.928;6.960;2023-01-19T06:52:10;2.00;99.90
11280;DHT22;5696;50.928;6.960;2023-01-19T06:54:36;2.00;99.90
11280;DHT22;5696;50.928;6.960;2023-01-19T06:57:03;2.00;99.90
11280;DHT22;5696;50.928;6.960;2023-01-19T06:59:28;1.90;99.90
11280;DHT22;5696;50.928;6.960;2023-01-19T07:01:54;2.00;99.90
11280;DHT22;5696;50.928;6.960;2023-01-19T07:04:21;2.10;99.90
11280;DHT22;5696;50.928;6.960;2023-01-19T07:06:47;2.10;99.90
11280;DHT22;5696;50.928;6.960;2023-01-19T07:09:12;2.10;99.90
11280;DHT22;5696;50.928;6.960;2023-01-19T07:11:39;2.10;99.90
11280;DHT22;5696;50.928;6.960;2023-01-19T07:14:04;2.10;99.90
11280;DHT22;5696;50.928;6.960;2023-01-19T07:16:30;2.20;99.90
11280;DHT22;5696;50.928;6.960;2023-01-19T07:18:56;2.10;99.90
11280;DHT22;5696;50.928;6.960;2023-01-19T07:21:22;2.10;99.90
11280;DHT22;5696;50.928;6.960;2023-01-19T07:23:48;2.10;99.90
11280;DHT22;5696;50.928;6.960;2023-01-19T07:26:14;2.10;99.90
11280;DHT22;5696;50.928;6.960;2023-01-19T07:28:43;2.10;99.90
11280;DHT22;5696;50.928;6.960;2023-01-19T07:31:08;2.10;99.90
11280;DHT22;5696;50.928;6.960;2023-01-19T07:33:34;2.00;99.90
11280;DHT22;5696;50.928;6.960;2023-01-19T07:36:00;2.00;99.90
11280;DHT22;5696;50.928;6.960;2023-01-19T07:38:26;2.00;99.90
11280;DHT22;5696;50.928;6.960;2023-01-19T07:41:02;2.00;99.90
11280;DHT22;5696;50.928;6.960;2023-01-19T07:43:28;2.10;99.90
11280;DHT22;5696;50.928;6.960;2023-01-19T07:46:01;2.20;99.90
11280;DHT22;5696;50.928;6.960;2023-01-19T07:48:28;2.20;99.90
11280;DHT22;5696;50.928;6.960;2023-01-19T07:51:01;2.20;99.90
11280;DHT22;5696;50.928;6.960;2023-01-19T07:53:29;2.20;99.90
11280;DHT22;5696;50.928;6.960;2023-01-19T07:55:56;2.30;99.90
11280;DHT22;5696;50.928;6.960;2023-01-19T07:58:23;2.20;99.90
11280;DHT22;5696;50.928;6.960;2023-01-19T08:00:49;2.20;99.90
11280;DHT22;5696;50.928;6.960;2023-01-19T08:03:15;2.30;99.90
11280;DHT22;5696;50.928;6.960;2023-01-19T08:05:42;2.30;99.90
11280;DHT22;5696;50.928;6.960;2023-01-19T08:08:07;2.40;99.90
11280;DHT22;5696;50.928;6.960;2023-01-19T08:10:33;2.50;99.90
11280;DHT22;5696;50.928;6.960;2023-01-19T08:12:59;2.50;99.90
11280;DHT22;5696;50.928;6.960;2023-01-19T08:15:25;2.50;99.90
11280;DHT22;5696;50.928;6.960;2023-01-19T08:17:56;2.60;99.90
11280;DHT22;5696;50.928;6.960;2023-01-19T08:20:23;2.60;99.90
11280;DHT22;5696;50.928;6.960;2023-01-19T08:22:49;2.70;99.90
11280;DHT22;5696;50.928;6.960;2023-01-19T08:25:15;2.70;99.90
11280;DHT22;5696;50.928;6.960;2023-01-19T08:27:41;2.70;99.90
11280;DHT22;5696;50.928;6.960;2023-01-19T08:30:07;2.70;99.90
11280;DHT22;5696;50.928;6.960;2023-01-19T08:32:33;2.70;99.90
11280;DHT22;5696;50.928;6.960;2023-01-19T08:34:58;2.80;99.90
11280;DHT22;5696;50.928;6.960;2023-01-19T08:37:24;2.90;99.90
11280;DHT22;5696;50.928;6.960;2023-01-19T08:39:50;2.90;99.90
11280;DHT22;5696;50.928;6.960;2023-01-19T08:42:18;2.80;99.90
11280;DHT22;5696;50.928;6.960;2023-01-19T08:44:43;2.80;99.90
11280;DHT22;5696;50.928;6.960;2023-01-19T08:47:09;2.80;99.90
11280;DHT22;5696;50.928;6.960;2023-01-19T08:49:34;2.80;99.90
11280;DHT22;5696;50.928;6.960;2023-01-19T08:52:00;3.00;99.90
11280;DHT22;5696;50.928;6.960;2023-01-19T08:54:27;2.90;99.90
11280;DHT22;5696;50.928;6.960;2023-01-19T08:56:53;3.00;99.90
11280;DHT22;5696;50.928;6.960;2023-01-19T08:59:21;2.90;99.90
11280;DHT22;5696;50.928;6.960;2023-01-19T09:01:47;3.00;99.90
11280;DHT22;5696;50.928;6.960;2023-01-19T09:04:12;3.20;99.90
11280;DHT22;5696;50.928;6.960;2023-01-19T09:06:38;3.20;99.90
11280;DHT22;5696;50.928;6.960;2023-01-19T09:09:04;3.30;99.90
11280;DHT22;5696;50.928;6.960;2023-01-19T09:11:29;3.40;99.90
11280;DHT22;5696;50.928;6.960;2023-01-19T09:13:55;3.40;99.90
11280;DHT22;5696;50.928;6.960;2023-01-19T09:16:20;3.40;99.90
11280;DHT22;5696;50.928;6.960;2023-01-19T09:18:46;3.40;99.90
11280;DHT22;5696;50.928;6.960;2023-01-19T09:21:12;3.40;99.90
11280;DHT22;5696;50.928;6.960;2023-01-19T09:23:38;3.60;99.90
11280;DHT22;5696;50.928;6.960;2023-01-19T09:26:05;3.80;99.90
11280;DHT22;5696;50.928;6.960;2023-01-19T09:28:30;3.90;99.90
11280;DHT22;5696;50.928;6.960;2023-01-19T09:30:56;3.90;99.90
11280;DHT22;5696;50.928;6.960;2023-01-19T09:33:22;3.90;99.90
11280;DHT22;5696;50.928;6.960;2023-01-19T09:35:49;4.00;99.90
11280;DHT22;5696;50.928;6.960;2023-01-19T09:38:17;4.10;99.90
11280;DHT22;5696;50.928;6.960;2023-01-19T09:40:49;4.00;99.90
11280;DHT22;5696;50.928;6.960;2023-01-19T09:43:46;4.00;99.90
11280;DHT22;5696;50.928;6.960;2023-01-19T09:48:50;4.10;99.90
11280;DHT22;5696;50.928;6.960;2023-01-19T09:51:23;4.10;99.90
11280;DHT22;5696;50.928;6.960;2023-01-19T09:56:21;3.90;99.90
11280;DHT22;5696;50.928;6.960;2023-01-19T09:58:50;4.10;99.90
11280;DHT22;5696;50.928;6.960;2023-01-19T10:01:32;4.10;99.90
11280;DHT22;5696;50.928;6.960;2023-01-19T10:07:02;4.10;99.90
11280;DHT22;5696;50.928;6.960;2023-01-19T10:10:01;4.10;99.90
11280;DHT22;5696;50.928;6.960;2023-01-19T10:18:24;3.80;99.90
11280;DHT22;5696;50.928;6.960;2023-01-19T10:20:59;3.70;99.90
11280;DHT22;5696;50.928;6.960;2023-01-19T10:26:03;3.60;99.90
11280;DHT22;5696;50.928;6.960;2023-01-19T10:28:31;3.60;99.90
11280;DHT22;5696;50.928;6.960;2023-01-19T10:30:57;3.50;99.90
11280;DHT22;5696;50.928;6.960;2023-01-19T10:33:22;3.40;99.90
11280;DHT22;5696;50.928;6.960;2023-01-19T10:35:48;3.50;99.90
11280;DHT22;5696;50.928;6.960;2023-01-19T10:38:15;3.40;99.90
11280;DHT22;5696;50.928;6.960;2023-01-19T10:40:57;3.50;99.90
11280;DHT22;5696;50.928;6.960;2023-01-19T10:43:39;3.50;99.90
11280;DHT22;5696;50.928;6.960;2023-01-19T10:48:55;3.60;99.90
11280;DHT22;5696;50.928;6.960;2023-01-19T10:51:21;3.70;99.90
11280;DHT22;5696;50.928;6.960;2023-01-19T10:53:58;3.80;99.90
11280;DHT22;5696;50.928;6.960;2023-01-19T10:56:28;3.90;99.90
11280;DHT22;5696;50.928;6.960;2023-01-19T10:58:55;4.20;99.90
11280;DHT22;5696;50.928;6.960;2023-01-19T11:01:25;4.20;99.90
11280;DHT22;5696;50.928;6.960;2023-01-19T11:03:52;4.40;99.90
11280;DHT22;5696;50.928;6.960;2023-01-19T11:06:22;4.50;99.90
11280;DHT22;5696;50.928;6.960;2023-01-19T11:08:49;4.60;99.90
11280;DHT22;5696;50.928;6.960;2023-01-19T11:11:19;4.70;99.90
11280;DHT22;5696;50.928;6.960;2023-01-19T11:14:07;4.70;99.90
11280;DHT22;5696;50.928;6.960;2023-01-19T11:16:34;4.70;99.90
11280;DHT22;5696;50.928;6.960;2023-01-19T11:19:02;4.90;99.90
11280;DHT22;5696;50.928;6.960;2023-01-19T11:21:30;5.10;99.90
11280;DHT22;5696;50.928;6.960;2023-01-19T11:23:59;5.10;99.90
11280;DHT22;5696;50.928;6.960;2023-01-19T11:26:43;5.10;99.90
11280;DHT22;5696;50.928;6.960;2023-01-19T11:29:20;5.30;99.90
11280;DHT22;5696;50.928;6.960;2023-01-19T11:31:47;5.30;99.90
11280;DHT22;5696;50.928;6.960;2023-01-19T11:34:25;5.40;99.90
11280;DHT22;5696;50.928;6.960;2023-01-19T11:39:25;5.70;99.90
11280;DHT22;5696;50.928;6.960;2023-01-19T11:42:01;5.60;99.90
11280;DHT22;5696;50.928;6.960;2023-01-19T11:45:03;5.70;99.90
11280;DHT22;5696;50.928;6.960;2023-01-19T11:47:45;5.50;99.90
11280;DHT22;5696;50.928;6.960;2023-01-19T11:50:22;5.50;99.90
11280;DHT22;5696;50.928;6.960;2023-01-19T11:55:54;5.80;99.90
11280;DHT22;5696;50.928;6.960;2023-01-19T11:58:21;5.70;99.90
11280;DHT22;5696;50.928;6.960;2023-01-19T12:01:16;5.80;99.90
11280;DHT22;5696;50.928;6.960;2023-01-19T12:03:59;6.00;99.90
11280;DHT22;5696;50.928;6.960;2023-01-19T12:06:30;6.20;99.90
11280;DHT22;5696;50.928;6.960;2023-01-19T12:11:39;6.40;99.90
11280;DHT22;5696;50.928;6.960;2023-01-19T12:14:17;6.50;99.90
11280;DHT22;5696;50.928;6.960;2023-01-19T12:16:44;6.90;99.90
11280;DHT22;5696;50.928;6.960;2023-01-19T12:19:16;6.90;99.90
11280;DHT22;5696;50.928;6.960;2023-01-19T12:21:43;7.10;99.90
11280;DHT22;5696;50.928;6.960;2023-01-19T12:24:19;6.80;99.90
11280;DHT22;5696;50.928;6.960;2023-01-19T12:26:58;7.30;99.90
11280;DHT22;5696;50.928;6.960;2023-01-19T12:29:30;7.20;99.90
11280;DHT22;5696;50.928;6.960;2023-01-19T12:34:41;7.70;99.90
11280;DHT22;5696;50.928;6.960;2023-01-19T12:39:53;7.70;99.90
11280;DHT22;5696;50.928;6.960;2023-01-19T12:42:20;7.40;99.90
11280;DHT22;5696;50.928;6.960;2023-01-19T12:44:46;7.10;99.90
11280;DHT22;5696;50.928;6.960;2023-01-19T12:49:48;6.90;99.90
11280;DHT22;5696;50.928;6.960;2023-01-19T12:52:46;6.90;99.90
11280;DHT22;5696;50.928;6.960;2023-01-19T12:55:29;7.10;99.90
11280;DHT22;5696;50.928;6.960;2023-01-19T13:00:43;6.70;99.90
11280;DHT22;5696;50.928;6.960;2023-01-19T13:13:28;6.30;99.90
11280;DHT22;5696;50.928;6.960;2023-01-19T13:15:55;6.30;99.90
11280;DHT22;5696;50.928;6.960;2023-01-19T13:18:26;6.40;99.90
11280;DHT22;5696;50.928;6.960;2023-01-19T13:21:03;6.50;99.90
11280;DHT22;5696;50.928;6.960;2023-01-19T13:26:26;6.30;99.90
11280;DHT22;5696;50.928;6.960;2023-01-19T13:31:35;6.80;99.90
11280;DHT22;5696;50.928;6.960;2023-01-19T13:34:03;6.90;99.90
11280;DHT22;5696;50.928;6.960;2023-01-19T13:36:37;7.20;99.90
11280;DHT22;5696;50.928;6.960;2023-01-19T13:39:16;7.50;99.90
11280;DHT22;5696;50.928;6.960;2023-01-19T13:41:45;7.30;99.90
11280;DHT22;5696;50.928;6.960;2023-01-19T13:44:27;7.20;99.90
11280;DHT22;5696;50.928;6.960;2023-01-19T13:46:54;6.90;99.90
11280;DHT22;5696;50.928;6.960;2023-01-19T13:49:41;6.70;99.90
11280;DHT22;5696;50.928;6.960;2023-01-19T13:52:12;6.30;99.90
11280;DHT22;5696;50.928;6.960;2023-01-19T13:54:50;6.50;99.90
11280;DHT22;5696;50.928;6.960;2023-01-19T14:02:59;6.20;99.90
11280;DHT22;5696;50.928;6.960;2023-01-19T14:05:29;6.20;99.90
11280;DHT22;5696;50.928;6.960;2023-01-19T14:10:34;6.20;99.90
11280;DHT22;5696;50.928;6.960;2023-01-19T14:13:03;6.10;99.90
11280;DHT22;5696;50.928;6.960;2023-01-19T14:15:31;6.10;99.90
11280;DHT22;5696;50.928;6.960;2023-01-19T14:18:38;5.80;99.90
11280;DHT22;5696;50.928;6.960;2023-01-19T14:21:08;5.50;99.90
11280;DHT22;5696;50.928;6.960;2023-01-19T14:26:51;5.40;99.90
11280;DHT22;5696;50.928;6.960;2023-01-19T14:32:10;5.40;99.90
11280;DHT22;5696;50.928;6.960;2023-01-19T14:34:50;5.30;99.90
11280;DHT22;5696;50.928;6.960;2023-01-19T14:37:28;5.20;99.90
11280;DHT22;5696;50.928;6.960;2023-01-19T14:42:35;5.00;99.90
11280;DHT22;5696;50.928;6.960;2023-01-19T14:45:04;5.00;99.90
11280;DHT22;5696;50.928;6.960;2023-01-19T14:47:40;5.00;99.90
11280;DHT22;5696;50.928;6.960;2023-01-19T14:50:08;5.00;99.90
11280;DHT22;5696;50.928;6.960;2023-01-19T14:52:57;5.00;99.90
11280;DHT22;5696;50.928;6.960;2023-01-19T14:55:35;5.10;99.90
11280;DHT22;5696;50.928;6.960;2023-01-19T14:58:11;5.10;99.90
11280;DHT22;5696;50.928;6.960;2023-01-19T15:00:38;5.20;99.90
11280;DHT22;5696;50.928;6.960;2023-01-19T15:03:04;5.20;99.90
11280;DHT22;5696;50.928;6.960;2023-01-19T15:05:35;5.00;99.90
11280;DHT22;5696;50.928;6.960;2023-01-19T15:08:02;4.90;99.90
11280;DHT22;5696;50.928;6.960;2023-01-19T15:10:28;5.10;99.90
11280;DHT22;5696;50.928;6.960;2023-01-19T15:12:55;5.20;99.90
11280;DHT22;5696;50.928;6.960;2023-01-19T15:15:32;5.10;99.90
11280;DHT22;5696;50.928;6.960;2023-01-19T15:18:00;5.20;99.90
11280;DHT22;5696;50.928;6.960;2023-01-19T15:20:26;5.10;99.90
11280;DHT22;5696;50.928;6.960;2023-01-19T15:22:52;5.10;99.90
11280;DHT22;5696;50.928;6.960;2023-01-19T15:25:20;5.20;99.90
11280;DHT22;5696;50.928;6.960;2023-01-19T15:27:46;5.00;99.90
11280;DHT22;5696;50.928;6.960;2023-01-19T15:30:20;4.90;99.90
11280;DHT22;5696;50.928;6.960;2023-01-19T15:32:47;4.90;99.90
11280;DHT22;5696;50.928;6.960;2023-01-19T15:35:19;4.90;99.90
11280;DHT22;5696;50.928;6.960;2023-01-19T15:37:46;4.80;99.90
11280;DHT22;5696;50.928;6.960;2023-01-19T15:40:12;4.80;99.90
11280;DHT22;5696;50.928;6.960;2023-01-19T15:42:38;4.80;99.90
11280;DHT22;5696;50.928;6.960;2023-01-19T15:47:54;4.60;99.90
11280;DHT22;5696;50.928;6.960;2023-01-19T15:50:19;4.60;99.90
11280;DHT22;5696;50.928;6.960;2023-01-19T15:52:45;4.60;99.90
11280;DHT22;5696;50.928;6.960;2023-01-19T15:55:11;4.70;99.90
11280;DHT22;5696;50.928;6.960;2023-01-19T15:57:37;4.60;99.90
11280;DHT22;5696;50.928;6.960;2023-01-19T16:00:06;4.60;99.90
11280;DHT22;5696;50.928;6.960;2023-01-19T16:02:32;4.60;99.90
11280;DHT22;5696;50.928;6.960;2023-01-19T16:04:58;4.60;99.90
11280;DHT22;5696;50.928;6.960;2023-01-19T16:07:23;4.50;99.90
11280;DHT22;5696;50.928;6.960;2023-01-19T16:09:49;4.40;99.90
11280;DHT22;5696;50.928;6.960;2023-01-19T16:12:15;4.40;99.90
11280;DHT22;5696;50.928;6.960;2023-01-19T16:14:41;4.40;99.90
11280;DHT22;5696;50.928;6.960;2023-01-19T16:17:06;4.40;99.90
11280;DHT22;5696;50.928;6.960;2023-01-19T16:19:32;4.40;99.90
11280;DHT22;5696;50.928;6.960;2023-01-19T16:21:58;4.30;99.90
11280;DHT22;5696;50.928;6.960;2023-01-19T16:24:24;4.30;99.90
11280;DHT22;5696;50.928;6.960;2023-01-19T16:26:50;4.30;99.90
11280;DHT22;5696;50.928;6.960;2023-01-19T16:29:16;4.30;99.90
11280;DHT22;5696;50.928;6.960;2023-01-19T16:31:42;4.30;99.90
11280;DHT22;5696;50.928;6.960;2023-01-19T16:34:09;4.40;99.90
11280;DHT22;5696;50.928;6.960;2023-01-19T16:36:37;4.30;99.90
11280;DHT22;5696;50.928;6.960;2023-01-19T16:39:05;4.20;99.90
11280;DHT22;5696;50.928;6.960;2023-01-19T16:41:32;4.20;99.90
11280;DHT22;5696;50.928;6.960;2023-01-19T16:43:58;4.20;99.90
11280;DHT22;5696;50.928;6.960;2023-01-19T16:46:29;4.20;99.90
11280;DHT22;5696;50.928;6.960;2023-01-19T16:49:12;4.20;99.90
11280;DHT22;5696;50.928;6.960;2023-01-19T16:51:38;4.10;99.90
11280;DHT22;5696;50.928;6.960;2023-01-19T16:54:04;4.20;99.90
11280;DHT22;5696;50.928;6.960;2023-01-19T16:56:29;4.10;99.90
11280;DHT22;5696;50.928;6.960;2023-01-19T16:58:56;4.10;99.90
11280;DHT22;5696;50.928;6.960;2023-01-19T17:01:23;4.10;99.90
11280;DHT22;5696;50.928;6.960;2023-01-19T17:03:49;4.10;99.90
11280;DHT22;5696;50.928;6.960;2023-01-19T17:06:17;4.10;99.90
11280;DHT22;5696;50.928;6.960;2023-01-19T17:08:43;4.10;99.90
11280;DHT22;5696;50.928;6.960;2023-01-19T17:11:23;4.20;99.90
11280;DHT22;5696;50.928;6.960;2023-01-19T17:13:58;4.20;99.90
11280;DHT22;5696;50.928;6.960;2023-01-19T17:16:25;4.20;99.90
11280;DHT22;5696;50.928;6.960;2023-01-19T17:18:51;4.20;99.90
11280;DHT22;5696;50.928;6.960;2023-01-19T17:21:17;4.20;99.90
11280;DHT22;5696;50.928;6.960;2023-01-19T17:23:48;4.10;99.90
11280;DHT22;5696;50.928;6.960;2023-01-19T17:26:14;4.10;99.90
11280;DHT22;5696;50.928;6.960;2023-01-19T17:28:40;4.20;99.90
11280;DHT22;5696;50.928;6.960;2023-01-19T17:31:18;4.10;99.90
11280;DHT22;5696;50.928;6.960;2023-01-19T17:33:46;4.20;99.90
11280;DHT22;5696;50.928;6.960;2023-01-19T17:36:14;4.20;99.90
11280;DHT22;5696;50.928;6.960;2023-01-19T17:38:40;4.10;99.90
11280;DHT22;5696;50.928;6.960;2023-01-19T17:41:15;4.20;99.90
11280;DHT22;5696;50.928;6.960;2023-01-19T17:43:41;4.10;99.90
11280;DHT22;5696;50.928;6.960;2023-01-19T17:46:07;4.10;99.90
11280;DHT22;5696;50.928;6.960;2023-01-19T17:48:33;4.10;99.90
11280;DHT22;5696;50.928;6.960;2023-01-19T17:51:07;4.10;99.90
11280;DHT22;5696;50.928;6.960;2023-01-19T17:53:35;4.10;99.90
11280;DHT22;5696;50.928;6.960;2023-01-19T17:56:05;4.10;99.90
11280;DHT22;5696;50.928;6.960;2023-01-19T17:58:31;4.00;99.90
11280;DHT22;5696;50.928;6.960;2023-01-19T18:00:57;4.10;99.90
11280;DHT22;5696;50.928;6.960;2023-01-19T18:03:23;4.10;99.90
11280;DHT22;5696;50.928;6.960;2023-01-19T18:05:55;4.10;99.90
11280;DHT22;5696;50.928;6.960;2023-01-19T18:08:21;4.10;99.90
11280;DHT22;5696;50.928;6.960;2023-01-19T18:10:54;4.10;99.90
11280;DHT22;5696;50.928;6.960;2023-01-19T18:13:21;4.10;99.90
11280;DHT22;5696;50.928;6.960;2023-01-19T18:15:46;4.00;99.90
11280;DHT22;5696;50.928;6.960;2023-01-19T18:18:12;4.00;99.90
11280;DHT22;5696;50.928;6.960;2023-01-19T18:20:38;3.90;99.90
11280;DHT22;5696;50.928;6.960;2023-01-19T18:23:05;3.90;99.90
11280;DHT22;5696;50.928;6.960;2023-01-19T18:25:31;3.90;99.90
11280;DHT22;5696;50.928;6.960;2023-01-19T18:27:56;3.90;99.90
11280;DHT22;5696;50.928;6.960;2023-01-19T18:30:22;3.80;99.90
11280;DHT22;5696;50.928;6.960;2023-01-19T18:32:48;3.80;99.90
11280;DHT22;5696;50.928;6.960;2023-01-19T18:35:16;3.80;99.90
11280;DHT22;5696;50.928;6.960;2023-01-19T18:37:42;3.80;99.90
11280;DHT22;5696;50.928;6.960;2023-01-19T18:40:09;3.70;99.90
11280;DHT22;5696;50.928;6.960;2023-01-19T18:42:35;3.80;99.90
11280;DHT22;5696;50.928;6.960;2023-01-19T18:45:00;3.90;99.90
11280;DHT22;5696;50.928;6.960;2023-01-19T18:47:26;3.90;99.90
11280;DHT22;5696;50.928;6.960;2023-01-19T18:49:52;3.90;99.90
11280;DHT22;5696;50.928;6.960;2023-01-19T18:52:18;3.90;99.90
11280;DHT22;5696;50.928;6.960;2023-01-19T18:54:47;3.80;99.90
11280;DHT22;5696;50.928;6.960;2023-01-19T18:57:13;3.80;99.90
11280;DHT22;5696;50.928;6.960;2023-01-19T18:59:38;3.70;99.90
11280;DHT22;5696;50.928;6.960;2023-01-19T19:02:10;3.70;99.90
11280;DHT22;5696;50.928;6.960;2023-01-19T19:04:35;3.70;99.90
11280;DHT22;5696;50.928;6.960;2023-01-19T19:07:01;3.60;99.90
11280;DHT22;5696;50.928;6.960;2023-01-19T19:09:27;3.60;99.90
11280;DHT22;5696;50.928;6.960;2023-01-19T19:11:53;3.60;99.90
11280;DHT22;5696;50.928;6.960;2023-01-19T19:14:18;3.50;99.90
11280;DHT22;5696;50.928;6.960;2023-01-19T19:16:44;3.40;99.90
11280;DHT22;5696;50.928;6.960;2023-01-19T19:19:10;3.30;99.90
11280;DHT22;5696;50.928;6.960;2023-01-19T19:21:40;3.30;99.90
11280;DHT22;5696;50.928;6.960;2023-01-19T19:24:05;3.30;99.90
11280;DHT22;5696;50.928;6.960;2023-01-19T19:26:32;3.30;99.90
11280;DHT22;5696;50.928;6.960;2023-01-19T19:28:59;3.30;99.90
11280;DHT22;5696;50.928;6.960;2023-01-19T19:31:26;3.20;99.90
11280;DHT22;5696;50.928;6.960;2023-01-19T19:33:53;3.20;99.90
11280;DHT22;5696;50.928;6.960;2023-01-19T19:36:20;3.20;99.90
11280;DHT22;5696;50.928;6.960;2023-01-19T19:38:48;3.30;99.90
11280;DHT22;5696;50.928;6.960;2023-01-19T19:41:17;3.40;99.90
11280;DHT22;5696;50.928;6.960;2023-01-19T19:43:43;3.40;99.90
11280;DHT22;5696;50.928;6.960;2023-01-19T19:46:11;3.30;99.90
11280;DHT22;5696;50.928;6.960;2023-01-19T19:48:37;3.30;99.90
11280;DHT22;5696;50.928;6.960;2023-01-19T19:53:31;3.20;99.90
11280;DHT22;5696;50.928;6.960;2023-01-19T19:55:59;3.10;99.90
11280;DHT22;5696;50.928;6.960;2023-01-19T19:58:26;3.20;99.90
11280;DHT22;5696;50.928;6.960;2023-01-19T20:00:52;3.10;99.90
11280;DHT22;5696;50.928;6.960;2023-01-19T20:03:18;3.10;99.90
11280;DHT22;5696;50.928;6.960;2023-01-19T20:05:44;3.00;99.90
11280;DHT22;5696;50.928;6.960;2023-01-19T20:08:10;3.10;99.90
11280;DHT22;5696;50.928;6.960;2023-01-19T20:10:36;3.10;99.90
11280;DHT22;5696;50.928;6.960;2023-01-19T20:13:03;3.10;99.90
11280;DHT22;5696;50.928;6.960;2023-01-19T20:15:29;3.10;99.90
11280;DHT22;5696;50.928;6.960;2023-01-19T20:17:55;3.10;99.90
11280;DHT22;5696;50.928;6.960;2023-01-19T20:20:22;3.10;99.90
11280;DHT22;5696;50.928;6.960;2023-01-19T20:22:47;3.10;99.90
11280;DHT22;5696;50.928;6.960;2023-01-19T20:25:13;3.10;99.90
11280;DHT22;5696;50.928;6.960;2023-01-19T20:27:39;3.10;99.90
11280;DHT22;5696;50.928;6.960;2023-01-19T20:30:05;3.00;99.90
11280;DHT22;5696;50.928;6.960;2023-01-19T20:32:32;3.00;99.90
11280;DHT22;5696;50.928;6.960;2023-01-19T20:34:58;3.00;99.90
11280;DHT22;5696;50.928;6.960;2023-01-19T20:37:24;3.00;99.90
11280;DHT22;5696;50.928;6.960;2023-01-19T20:39:49;2.90;99.90
11280;DHT22;5696;50.928;6.960;2023-01-19T20:42:16;2.90;99.90
11280;DHT22;5696;50.928;6.960;2023-01-19T20:44:41;2.90;99.90
11280;DHT22;5696;50.928;6.960;2023-01-19T20:47:07;2.90;99.90
11280;DHT22;5696;50.928;6.960;2023-01-19T20:49:34;2.90;99.90
11280;DHT22;5696;50.928;6.960;2023-01-19T20:52:00;2.90;99.90
11280;DHT22;5696;50.928;6.960;2023-01-19T20:54:27;2.90;99.90
11280;DHT22;5696;50.928;6.960;2023-01-19T20:56:55;2.90;99.90
11280;DHT22;5696;50.928;6.960;2023-01-19T20:59:20;2.90;99.90
11280;DHT22;5696;50.928;6.960;2023-01-19T21:01:46;2.90;99.90
11280;DHT22;5696;50.928;6.960;2023-01-19T21:04:15;3.00;99.90
11280;DHT22;5696;50.928;6.960;2023-01-19T21:06:41;3.00;99.90
11280;DHT22;5696;50.928;6.960;2023-01-19T21:09:12;3.00;99.90
11280;DHT22;5696;50.928;6.960;2023-01-19T21:11:38;3.00;99.90
11280;DHT22;5696;50.928;6.960;2023-01-19T21:14:04;3.00;99.90
11280;DHT22;5696;50.928;6.960;2023-01-19T21:16:32;3.00;99.90
11280;DHT22;5696;50.928;6.960;2023-01-19T21:18:58;3.00;99.90
11280;DHT22;5696;50.928;6.960;2023-01-19T21:21:24;3.00;99.90
11280;DHT22;5696;50.928;6.960;2023-01-19T21:23:50;3.00;99.90
11280;DHT22;5696;50.928;6.960;2023-01-19T21:26:16;3.00;99.90
11280;DHT22;5696;50.928;6.960;2023-01-19T21:28:42;3.00;99.90
11280;DHT22;5696;50.928;6.960;2023-01-19T21:31:11;3.00;99.90
11280;DHT22;5696;50.928;6.960;2023-01-19T21:33:40;3.00;99.90
11280;DHT22;5696;50.928;6.960;2023-01-19T21:36:07;3.00;99.90
11280;DHT22;5696;50.928;6.960;2023-01-19T21:38:34;3.00;99.90
11280;DHT22;5696;50.928;6.960;2023-01-19T21:41:07;2.90;99.90
11280;DHT22;5696;50.928;6.960;2023-01-19T21:43:35;2.90;99.90
11280;DHT22;5696;50.928;6.960;2023-01-19T21:46:20;2.90;99.90
11280;DHT22;5696;50.928;6.960;2023-01-19T21:48:47;2.90;99.90
11280;DHT22;5696;50.928;6.960;2023-01-19T21:51:13;2.90;99.90
11280;DHT22;5696;50.928;6.960;2023-01-19T21:53:39;2.90;99.90
11280;DHT22;5696;50.928;6.960;2023-01-19T21:56:07;3.00;99.90
11280;DHT22;5696;50.928;6.960;2023-01-19T21:58:33;3.00;99.90
11280;DHT22;5696;50.928;6.960;2023-01-19T22:01:03;3.00;99.90
11280;DHT22;5696;50.928;6.960;2023-01-19T22:03:30;3.00;99.90
11280;DHT22;5696;50.928;6.960;2023-01-19T22:05:56;3.00;99.90
11280;DHT22;5696;50.928;6.960;2023-01-19T22:08:26;3.00;99.90
11280;DHT22;5696;50.928;6.960;2023-01-19T22:10:52;3.00;99.90
11280;DHT22;5696;50.928;6.960;2023-01-19T22:13:18;3.00;99.90
11280;DHT22;5696;50.928;6.960;2023-01-19T22:15:47;3.00;99.90
11280;DHT22;5696;50.928;6.960;2023-01-19T22:18:12;3.10;99.90
11280;DHT22;5696;50.928;6.960;2023-01-19T22:20:38;3.10;99.90
11280;DHT22;5696;50.928;6.960;2023-01-19T22:23:04;3.10;99.90
11280;DHT22;5696;50.928;6.960;2023-01-19T22:25:31;3.20;99.90
11280;DHT22;5696;50.928;6.960;2023-01-19T22:27:57;3.20;99.90
11280;DHT22;5696;50.928;6.960;2023-01-19T22:30:23;3.20;99.90
11280;DHT22;5696;50.928;6.960;2023-01-19T22:32:49;3.20;99.90
11280;DHT22;5696;50.928;6.960;2023-01-19T22:35:15;3.30;99.90
11280;DHT22;5696;50.928;6.960;2023-01-19T22:37:40;3.20;99.90
11280;DHT22;5696;50.928;6.960;2023-01-19T22:40:07;3.20;99.90
11280;DHT22;5696;50.928;6.960;2023-01-19T22:42:33;3.20;99.90
11280;DHT22;5696;50.928;6.960;2023-01-19T22:44:58;3.20;99.90
11280;DHT22;5696;50.928;6.960;2023-01-19T22:47:24;3.10;99.90
11280;DHT22;5696;50.928;6.960;2023-01-19T22:49:50;3.10;99.90
11280;DHT22;5696;50.928;6.960;2023-01-19T22:52:15;3.10;99.90
11280;DHT22;5696;50.928;6.960;2023-01-19T22:54:44;3.10;99.90
11280;DHT22;5696;50.928;6.960;2023-01-19T22:57:09;3.00;99.90
11280;DHT22;5696;50.928;6.960;2023-01-19T22:59:36;3.00;99.90
11280;DHT22;5696;50.928;6.960;2023-01-19T23:02:02;2.90;99.90
11280;DHT22;5696;50.928;6.960;2023-01-19T23:04:27;2.80;99.90
11280;DHT22;5696;50.928;6.960;2023-01-19T23:06:53;2.80;99.90
